sensor_id;sensor_type;location;lat;lon;timestamp;P1;durP1;ratioP1;P2;durP2;ratioP2
15946;SDS011;8072;52.554;7.966;2023-05-09T00:00:06;18.97;;;13.70;;
15946;SDS011;8072;52.554;7.966;2023-05-09T00:02:35;17.90;;;13.23;;
15946;SDS011;8072;52.554;7.966;2023-05-09T00:05:02;18.03;;;13.43;;
15946;SDS011;8072;52.554;7.966;2023-05-09T00:07:29;18.30;;;14.00;;
15946;SDS011;8072;52.554;7.966;2023-05-09T00:09:59;20.37;;;14.67;;
15946;SDS011;8072;52.554;7.966;2023-05-09T00:12:25;19.60;;;14.13;;
15946;SDS011;8072;52.554;7.966;2023-05-09T00:14:52;16.70;;;13.40;;
15946;SDS011;8072;52.554;7.966;2023-05-09T00:17:21;17.87;;;12.90;;
15946;SDS011;8072;52.554;7.966;2023-05-09T00:19:51;18.10;;;13.20;;
15946;SDS011;8072;52.554;7.966;2023-05-09T00:22:17;17.73;;;12.80;;
15946;SDS011;8072;52.554;7.966;2023-05-09T00:24:45;18.53;;;14.43;;
15946;SDS011;8072;52.554;7.966;2023-05-09T00:27:12;19.53;;;14.67;;
15946;SDS011;8072;52.554;7.966;2023-05-09T00:29:38;17.93;;;14.20;;
15946;SDS011;8072;52.554;7.966;2023-05-09T00:32:04;17.37;;;13.37;;
15946;SDS011;8072;52.554;7.966;2023-05-09T00:34:30;16.30;;;12.70;;
15946;SDS011;8072;52.554;7.966;2023-05-09T00:36:56;18.10;;;13.77;;
15946;SDS011;8072;52.554;7.966;2023-05-09T00:39:22;22.80;;;15.57;;
15946;SDS011;8072;52.554;7.966;2023-05-09T00:41:47;19.53;;;14.00;;
15946;SDS011;8072;52.554;7.966;2023-05-09T00:44:13;18.23;;;14.70;;
15946;SDS011;8072;52.554;7.966;2023-05-09T00:46:39;19.73;;;14.00;;
15946;SDS011;8072;52.554;7.966;2023-05-09T00:49:04;17.13;;;13.43;;
15946;SDS011;8072;52.554;7.966;2023-05-09T00:51:30;19.47;;;14.20;;
15946;SDS011;8072;52.554;7.966;2023-05-09T00:53:57;19.90;;;15.60;;
15946;SDS011;8072;52.554;7.966;2023-05-09T00:56:23;17.13;;;13.63;;
15946;SDS011;8072;52.554;7.966;2023-05-09T00:58:50;19.43;;;13.80;;
15946;SDS011;8072;52.554;7.966;2023-05-09T01:01:16;18.00;;;13.90;;
15946;SDS011;8072;52.554;7.966;2023-05-09T01:03:42;18.93;;;14.33;;
15946;SDS011;8072;52.554;7.966;2023-05-09T01:11:29;18.10;;;13.33;;
15946;SDS011;8072;52.554;7.966;2023-05-09T01:16:49;20.90;;;14.80;;
15946;SDS011;8072;52.554;7.966;2023-05-09T01:19:41;20.50;;;14.20;;
15946;SDS011;8072;52.554;7.966;2023-05-09T01:22:18;21.17;;;13.63;;
15946;SDS011;8072;52.554;7.966;2023-05-09T01:25:06;18.13;;;13.67;;
15946;SDS011;8072;52.554;7.966;2023-05-09T01:30:10;17.43;;;14.07;;
15946;SDS011;8072;52.554;7.966;2023-05-09T01:32:37;19.80;;;13.73;;
15946;SDS011;8072;52.554;7.966;2023-05-09T01:35:06;17.10;;;12.27;;
15946;SDS011;8072;52.554;7.966;2023-05-09T01:37:37;17.70;;;13.80;;
15946;SDS011;8072;52.554;7.966;2023-05-09T01:40:17;18.90;;;12.77;;
15946;SDS011;8072;52.554;7.966;2023-05-09T01:42:49;17.30;;;12.03;;
15946;SDS011;8072;52.554;7.966;2023-05-09T01:45:18;18.03;;;13.63;;
15946;SDS011;8072;52.554;7.966;2023-05-09T01:47:45;16.57;;;12.70;;
15946;SDS011;8072;52.554;7.966;2023-05-09T01:50:12;17.73;;;13.70;;
15946;SDS011;8072;52.554;7.966;2023-05-09T01:52:41;17.50;;;13.07;;
15946;SDS011;8072;52.554;7.966;2023-05-09T01:55:08;16.60;;;12.80;;
15946;SDS011;8072;52.554;7.966;2023-05-09T01:57:34;16.63;;;13.27;;
15946;SDS011;8072;52.554;7.966;2023-05-09T02:00:02;15.23;;;12.00;;
15946;SDS011;8072;52.554;7.966;2023-05-09T02:02:30;16.80;;;11.87;;
15946;SDS011;8072;52.554;7.966;2023-05-09T02:04:57;18.87;;;12.23;;
15946;SDS011;8072;52.554;7.966;2023-05-09T02:07:24;15.00;;;11.63;;
15946;SDS011;8072;52.554;7.966;2023-05-09T02:09:53;14.50;;;11.60;;
15946;SDS011;8072;52.554;7.966;2023-05-09T02:12:21;13.50;;;10.73;;
15946;SDS011;8072;52.554;7.966;2023-05-09T02:14:48;14.97;;;12.10;;
15946;SDS011;8072;52.554;7.966;2023-05-09T02:17:14;14.83;;;11.97;;
15946;SDS011;8072;52.554;7.966;2023-05-09T02:19:44;11.87;;;10.37;;
15946;SDS011;8072;52.554;7.966;2023-05-09T02:22:10;20.20;;;12.60;;
15946;SDS011;8072;52.554;7.966;2023-05-09T02:24:37;13.87;;;11.37;;
15946;SDS011;8072;52.554;7.966;2023-05-09T02:27:04;16.80;;;11.47;;
15946;SDS011;8072;52.554;7.966;2023-05-09T02:29:34;14.70;;;11.07;;
15946;SDS011;8072;52.554;7.966;2023-05-09T02:32:21;14.27;;;11.60;;
15946;SDS011;8072;52.554;7.966;2023-05-09T02:34:52;14.60;;;10.63;;
15946;SDS011;8072;52.554;7.966;2023-05-09T02:37:20;15.10;;;11.07;;
15946;SDS011;8072;52.554;7.966;2023-05-09T02:39:46;14.47;;;11.43;;
15946;SDS011;8072;52.554;7.966;2023-05-09T02:42:12;14.67;;;11.03;;
15946;SDS011;8072;52.554;7.966;2023-05-09T02:44:43;13.27;;;11.37;;
15946;SDS011;8072;52.554;7.966;2023-05-09T02:47:08;15.60;;;11.73;;
15946;SDS011;8072;52.554;7.966;2023-05-09T02:49:34;14.03;;;11.40;;
15946;SDS011;8072;52.554;7.966;2023-05-09T02:52:00;13.90;;;11.17;;
15946;SDS011;8072;52.554;7.966;2023-05-09T02:54:26;16.80;;;11.03;;
15946;SDS011;8072;52.554;7.966;2023-05-09T02:56:52;13.63;;;11.23;;
15946;SDS011;8072;52.554;7.966;2023-05-09T02:59:17;14.43;;;10.80;;
15946;SDS011;8072;52.554;7.966;2023-05-09T03:01:44;13.93;;;10.93;;
15946;SDS011;8072;52.554;7.966;2023-05-09T03:04:10;11.93;;;10.13;;
15946;SDS011;8072;52.554;7.966;2023-05-09T03:06:36;14.03;;;11.10;;
15946;SDS011;8072;52.554;7.966;2023-05-09T03:09:02;11.43;;;9.80;;
15946;SDS011;8072;52.554;7.966;2023-05-09T03:11:28;11.77;;;9.57;;
15946;SDS011;8072;52.554;7.966;2023-05-09T03:13:54;12.77;;;9.80;;
15946;SDS011;8072;52.554;7.966;2023-05-09T03:16:21;15.27;;;11.17;;
15946;SDS011;8072;52.554;7.966;2023-05-09T03:18:47;12.90;;;10.53;;
15946;SDS011;8072;52.554;7.966;2023-05-09T03:21:13;12.73;;;10.67;;
15946;SDS011;8072;52.554;7.966;2023-05-09T03:23:39;12.43;;;9.97;;
15946;SDS011;8072;52.554;7.966;2023-05-09T03:26:04;12.37;;;10.27;;
15946;SDS011;8072;52.554;7.966;2023-05-09T03:28:30;14.73;;;10.40;;
15946;SDS011;8072;52.554;7.966;2023-05-09T03:30:56;13.60;;;10.33;;
15946;SDS011;8072;52.554;7.966;2023-05-09T03:33:22;12.20;;;9.83;;
15946;SDS011;8072;52.554;7.966;2023-05-09T03:35:50;13.70;;;10.10;;
15946;SDS011;8072;52.554;7.966;2023-05-09T03:38:16;13.60;;;10.37;;
15946;SDS011;8072;52.554;7.966;2023-05-09T03:40:41;12.30;;;10.07;;
15946;SDS011;8072;52.554;7.966;2023-05-09T03:43:07;14.80;;;11.33;;
15946;SDS011;8072;52.554;7.966;2023-05-09T03:45:33;13.73;;;10.27;;
15946;SDS011;8072;52.554;7.966;2023-05-09T03:48:03;13.60;;;10.07;;
15946;SDS011;8072;52.554;7.966;2023-05-09T03:50:33;12.77;;;10.10;;
15946;SDS011;8072;52.554;7.966;2023-05-09T03:53:00;12.73;;;10.03;;
15946;SDS011;8072;52.554;7.966;2023-05-09T03:55:26;13.33;;;9.57;;
15946;SDS011;8072;52.554;7.966;2023-05-09T03:57:52;13.10;;;10.77;;
15946;SDS011;8072;52.554;7.966;2023-05-09T04:00:18;13.37;;;10.00;;
15946;SDS011;8072;52.554;7.966;2023-05-09T04:02:47;14.00;;;9.97;;
15946;SDS011;8072;52.554;7.966;2023-05-09T04:05:13;13.50;;;10.27;;
15946;SDS011;8072;52.554;7.966;2023-05-09T04:07:40;13.73;;;9.70;;
15946;SDS011;8072;52.554;7.966;2023-05-09T04:10:06;16.43;;;10.57;;
15946;SDS011;8072;52.554;7.966;2023-05-09T04:12:32;14.67;;;9.90;;
15946;SDS011;8072;52.554;7.966;2023-05-09T04:14:58;14.40;;;10.03;;
15946;SDS011;8072;52.554;7.966;2023-05-09T04:17:25;13.33;;;9.43;;
15946;SDS011;8072;52.554;7.966;2023-05-09T04:19:51;13.80;;;9.97;;
15946;SDS011;8072;52.554;7.966;2023-05-09T04:22:17;15.57;;;10.23;;
15946;SDS011;8072;52.554;7.966;2023-05-09T04:24:42;13.47;;;9.80;;
15946;SDS011;8072;52.554;7.966;2023-05-09T04:27:08;11.90;;;9.57;;
15946;SDS011;8072;52.554;7.966;2023-05-09T04:29:34;13.43;;;10.30;;
15946;SDS011;8072;52.554;7.966;2023-05-09T04:32:00;11.97;;;9.70;;
15946;SDS011;8072;52.554;7.966;2023-05-09T04:34:27;11.67;;;9.30;;
15946;SDS011;8072;52.554;7.966;2023-05-09T04:36:53;10.23;;;8.50;;
15946;SDS011;8072;52.554;7.966;2023-05-09T04:39:21;11.47;;;8.97;;
15946;SDS011;8072;52.554;7.966;2023-05-09T04:41:46;12.43;;;9.13;;
15946;SDS011;8072;52.554;7.966;2023-05-09T04:44:13;12.60;;;9.73;;
15946;SDS011;8072;52.554;7.966;2023-05-09T04:46:39;10.60;;;8.13;;
15946;SDS011;8072;52.554;7.966;2023-05-09T04:49:05;12.00;;;8.87;;
15946;SDS011;8072;52.554;7.966;2023-05-09T04:51:31;11.83;;;8.87;;
15946;SDS011;8072;52.554;7.966;2023-05-09T04:53:57;13.07;;;8.67;;
15946;SDS011;8072;52.554;7.966;2023-05-09T04:56:23;10.47;;;8.50;;
15946;SDS011;8072;52.554;7.966;2023-05-09T04:58:48;12.30;;;8.63;;
15946;SDS011;8072;52.554;7.966;2023-05-09T05:01:15;11.73;;;8.50;;
15946;SDS011;8072;52.554;7.966;2023-05-09T05:03:41;12.03;;;8.60;;
15946;SDS011;8072;52.554;7.966;2023-05-09T05:06:07;13.10;;;9.23;;
15946;SDS011;8072;52.554;7.966;2023-05-09T05:08:34;11.00;;;8.10;;
15946;SDS011;8072;52.554;7.966;2023-05-09T05:10:59;10.57;;;8.50;;
15946;SDS011;8072;52.554;7.966;2023-05-09T05:13:25;12.13;;;8.87;;
15946;SDS011;8072;52.554;7.966;2023-05-09T05:15:51;12.73;;;8.43;;
15946;SDS011;8072;52.554;7.966;2023-05-09T05:18:17;10.20;;;8.13;;
15946;SDS011;8072;52.554;7.966;2023-05-09T05:20:42;11.67;;;7.93;;
15946;SDS011;8072;52.554;7.966;2023-05-09T05:23:08;10.13;;;7.90;;
15946;SDS011;8072;52.554;7.966;2023-05-09T05:25:34;12.93;;;8.43;;
15946;SDS011;8072;52.554;7.966;2023-05-09T05:28:00;9.60;;;7.30;;
15946;SDS011;8072;52.554;7.966;2023-05-09T05:30:26;9.30;;;7.47;;
15946;SDS011;8072;52.554;7.966;2023-05-09T05:32:52;12.77;;;7.90;;
15946;SDS011;8072;52.554;7.966;2023-05-09T05:35:17;9.37;;;7.87;;
15946;SDS011;8072;52.554;7.966;2023-05-09T05:37:46;11.37;;;8.37;;
15946;SDS011;8072;52.554;7.966;2023-05-09T05:40:12;9.23;;;8.17;;
15946;SDS011;8072;52.554;7.966;2023-05-09T05:42:38;11.63;;;7.90;;
15946;SDS011;8072;52.554;7.966;2023-05-09T05:45:04;9.37;;;8.03;;
15946;SDS011;8072;52.554;7.966;2023-05-09T05:47:33;9.30;;;8.10;;
15946;SDS011;8072;52.554;7.966;2023-05-09T05:50:00;10.43;;;8.23;;
15946;SDS011;8072;52.554;7.966;2023-05-09T05:52:27;12.17;;;9.00;;
15946;SDS011;8072;52.554;7.966;2023-05-09T05:54:53;8.73;;;7.53;;
15946;SDS011;8072;52.554;7.966;2023-05-09T05:57:19;9.17;;;8.10;;
15946;SDS011;8072;52.554;7.966;2023-05-09T05:59:48;10.60;;;8.47;;
15946;SDS011;8072;52.554;7.966;2023-05-09T06:02:15;9.57;;;8.20;;
15946;SDS011;8072;52.554;7.966;2023-05-09T06:04:41;11.40;;;8.93;;
15946;SDS011;8072;52.554;7.966;2023-05-09T06:07:07;11.03;;;8.13;;
15946;SDS011;8072;52.554;7.966;2023-05-09T06:09:33;10.50;;;8.47;;
15946;SDS011;8072;52.554;7.966;2023-05-09T06:11:59;9.80;;;7.90;;
15946;SDS011;8072;52.554;7.966;2023-05-09T06:14:25;13.40;;;9.13;;
15946;SDS011;8072;52.554;7.966;2023-05-09T06:16:51;10.90;;;8.47;;
15946;SDS011;8072;52.554;7.966;2023-05-09T06:19:17;13.70;;;9.03;;
15946;SDS011;8072;52.554;7.966;2023-05-09T06:21:43;11.77;;;8.87;;
15946;SDS011;8072;52.554;7.966;2023-05-09T06:24:09;13.67;;;8.83;;
15946;SDS011;8072;52.554;7.966;2023-05-09T06:26:35;11.93;;;8.77;;
15946;SDS011;8072;52.554;7.966;2023-05-09T06:29:01;15.57;;;9.27;;
15946;SDS011;8072;52.554;7.966;2023-05-09T06:31:27;11.40;;;9.13;;
15946;SDS011;8072;52.554;7.966;2023-05-09T06:33:53;11.93;;;9.53;;
15946;SDS011;8072;52.554;7.966;2023-05-09T06:36:19;13.60;;;9.57;;
15946;SDS011;8072;52.554;7.966;2023-05-09T06:38:45;11.50;;;9.57;;
15946;SDS011;8072;52.554;7.966;2023-05-09T06:41:10;12.90;;;9.83;;
15946;SDS011;8072;52.554;7.966;2023-05-09T06:43:36;12.03;;;10.10;;
15946;SDS011;8072;52.554;7.966;2023-05-09T06:46:02;13.03;;;9.93;;
15946;SDS011;8072;52.554;7.966;2023-05-09T06:48:28;14.00;;;10.40;;
15946;SDS011;8072;52.554;7.966;2023-05-09T06:50:54;15.03;;;11.00;;
15946;SDS011;8072;52.554;7.966;2023-05-09T06:53:19;15.20;;;11.83;;
15946;SDS011;8072;52.554;7.966;2023-05-09T06:55:45;15.70;;;11.87;;
15946;SDS011;8072;52.554;7.966;2023-05-09T06:58:11;15.30;;;11.17;;
15946;SDS011;8072;52.554;7.966;2023-05-09T07:00:37;14.70;;;10.93;;
15946;SDS011;8072;52.554;7.966;2023-05-09T07:03:03;15.00;;;12.20;;
15946;SDS011;8072;52.554;7.966;2023-05-09T07:05:32;18.77;;;13.10;;
15946;SDS011;8072;52.554;7.966;2023-05-09T07:07:58;24.50;;;14.40;;
15946;SDS011;8072;52.554;7.966;2023-05-09T07:10:24;19.30;;;14.43;;
15946;SDS011;8072;52.554;7.966;2023-05-09T07:12:50;19.27;;;13.73;;
15946;SDS011;8072;52.554;7.966;2023-05-09T07:15:16;18.03;;;13.77;;
15946;SDS011;8072;52.554;7.966;2023-05-09T07:17:42;19.53;;;14.53;;
15946;SDS011;8072;52.554;7.966;2023-05-09T07:20:07;20.10;;;14.27;;
15946;SDS011;8072;52.554;7.966;2023-05-09T07:22:33;20.83;;;14.13;;
15946;SDS011;8072;52.554;7.966;2023-05-09T07:24:59;20.90;;;14.83;;
15946;SDS011;8072;52.554;7.966;2023-05-09T07:27:25;22.47;;;13.80;;
15946;SDS011;8072;52.554;7.966;2023-05-09T07:29:51;19.07;;;13.73;;
15946;SDS011;8072;52.554;7.966;2023-05-09T07:32:20;21.17;;;15.43;;
15946;SDS011;8072;52.554;7.966;2023-05-09T07:34:46;19.53;;;14.53;;
15946;SDS011;8072;52.554;7.966;2023-05-09T07:37:12;19.30;;;14.23;;
15946;SDS011;8072;52.554;7.966;2023-05-09T07:39:38;22.70;;;15.03;;
15946;SDS011;8072;52.554;7.966;2023-05-09T07:42:03;18.10;;;13.77;;
15946;SDS011;8072;52.554;7.966;2023-05-09T07:44:29;19.13;;;14.23;;
15946;SDS011;8072;52.554;7.966;2023-05-09T07:46:55;18.90;;;14.33;;
15946;SDS011;8072;52.554;7.966;2023-05-09T07:49:23;20.20;;;14.30;;
15946;SDS011;8072;52.554;7.966;2023-05-09T07:51:49;20.53;;;15.17;;
15946;SDS011;8072;52.554;7.966;2023-05-09T07:54:15;19.90;;;14.57;;
15946;SDS011;8072;52.554;7.966;2023-05-09T07:56:41;19.53;;;14.27;;
15946;SDS011;8072;52.554;7.966;2023-05-09T07:59:07;23.00;;;15.63;;
15946;SDS011;8072;52.554;7.966;2023-05-09T08:01:32;20.73;;;14.90;;
15946;SDS011;8072;52.554;7.966;2023-05-09T08:03:58;21.67;;;15.87;;
15946;SDS011;8072;52.554;7.966;2023-05-09T08:06:24;20.60;;;15.13;;
15946;SDS011;8072;52.554;7.966;2023-05-09T08:08:50;20.90;;;14.43;;
15946;SDS011;8072;52.554;7.966;2023-05-09T08:11:16;20.17;;;15.03;;
15946;SDS011;8072;52.554;7.966;2023-05-09T08:13:42;21.57;;;15.03;;
15946;SDS011;8072;52.554;7.966;2023-05-09T08:16:09;19.83;;;14.90;;
15946;SDS011;8072;52.554;7.966;2023-05-09T08:18:34;20.77;;;15.50;;
15946;SDS011;8072;52.554;7.966;2023-05-09T08:21:00;22.30;;;14.53;;
15946;SDS011;8072;52.554;7.966;2023-05-09T08:23:26;19.73;;;14.60;;
15946;SDS011;8072;52.554;7.966;2023-05-09T08:25:54;19.13;;;14.47;;
15946;SDS011;8072;52.554;7.966;2023-05-09T08:28:20;22.30;;;14.90;;
15946;SDS011;8072;52.554;7.966;2023-05-09T08:30:49;19.93;;;14.27;;
15946;SDS011;8072;52.554;7.966;2023-05-09T08:33:15;20.27;;;15.47;;
15946;SDS011;8072;52.554;7.966;2023-05-09T08:35:41;20.67;;;15.17;;
15946;SDS011;8072;52.554;7.966;2023-05-09T08:38:07;21.53;;;15.93;;
15946;SDS011;8072;52.554;7.966;2023-05-09T08:40:36;21.90;;;16.03;;
15946;SDS011;8072;52.554;7.966;2023-05-09T08:43:02;22.43;;;15.63;;
15946;SDS011;8072;52.554;7.966;2023-05-09T08:45:30;20.97;;;15.50;;
15946;SDS011;8072;52.554;7.966;2023-05-09T08:48:03;22.37;;;15.90;;
15946;SDS011;8072;52.554;7.966;2023-05-09T08:50:30;22.03;;;16.13;;
15946;SDS011;8072;52.554;7.966;2023-05-09T08:52:57;20.60;;;16.23;;
15946;SDS011;8072;52.554;7.966;2023-05-09T08:55:23;23.00;;;16.73;;
15946;SDS011;8072;52.554;7.966;2023-05-09T08:57:50;28.73;;;17.83;;
15946;SDS011;8072;52.554;7.966;2023-05-09T09:00:17;22.93;;;16.17;;
15946;SDS011;8072;52.554;7.966;2023-05-09T09:02:44;27.57;;;17.67;;
15946;SDS011;8072;52.554;7.966;2023-05-09T09:05:10;23.83;;;17.13;;
15946;SDS011;8072;52.554;7.966;2023-05-09T09:07:37;26.20;;;16.70;;
15946;SDS011;8072;52.554;7.966;2023-05-09T09:10:04;24.93;;;17.90;;
15946;SDS011;8072;52.554;7.966;2023-05-09T09:12:32;23.03;;;17.00;;
15946;SDS011;8072;52.554;7.966;2023-05-09T09:15:03;23.60;;;17.00;;
15946;SDS011;8072;52.554;7.966;2023-05-09T09:17:30;29.43;;;17.33;;
15946;SDS011;8072;52.554;7.966;2023-05-09T09:19:58;28.30;;;17.37;;
15946;SDS011;8072;52.554;7.966;2023-05-09T09:22:31;22.07;;;16.23;;
15946;SDS011;8072;52.554;7.966;2023-05-09T09:25:01;25.20;;;16.67;;
15946;SDS011;8072;52.554;7.966;2023-05-09T09:27:28;23.83;;;16.33;;
15946;SDS011;8072;52.554;7.966;2023-05-09T09:29:54;22.87;;;16.67;;
15946;SDS011;8072;52.554;7.966;2023-05-09T09:32:19;23.07;;;16.93;;
15946;SDS011;8072;52.554;7.966;2023-05-09T09:35:02;21.20;;;15.37;;
15946;SDS011;8072;52.554;7.966;2023-05-09T09:37:32;19.60;;;14.90;;
15946;SDS011;8072;52.554;7.966;2023-05-09T09:39:59;21.37;;;15.87;;
15946;SDS011;8072;52.554;7.966;2023-05-09T09:42:25;23.37;;;17.07;;
15946;SDS011;8072;52.554;7.966;2023-05-09T09:45:03;23.30;;;16.77;;
15946;SDS011;8072;52.554;7.966;2023-05-09T09:47:34;22.73;;;17.63;;
15946;SDS011;8072;52.554;7.966;2023-05-09T09:50:08;24.37;;;17.33;;
15946;SDS011;8072;52.554;7.966;2023-05-09T09:52:56;22.80;;;17.03;;
15946;SDS011;8072;52.554;7.966;2023-05-09T09:55:24;26.00;;;18.63;;
15946;SDS011;8072;52.554;7.966;2023-05-09T09:57:50;29.63;;;18.90;;
15946;SDS011;8072;52.554;7.966;2023-05-09T10:00:17;26.00;;;18.53;;
15946;SDS011;8072;52.554;7.966;2023-05-09T10:02:48;26.03;;;18.10;;
15946;SDS011;8072;52.554;7.966;2023-05-09T10:05:21;24.23;;;18.13;;
15946;SDS011;8072;52.554;7.966;2023-05-09T10:08:24;26.90;;;18.30;;
15946;SDS011;8072;52.554;7.966;2023-05-09T10:10:43;24.27;;;17.55;;
15946;SDS011;8072;52.554;7.966;2023-05-09T10:13:09;24.08;;;18.30;;
15946;SDS011;8072;52.554;7.966;2023-05-09T10:15:38;26.07;;;18.67;;
15946;SDS011;8072;52.554;7.966;2023-05-09T10:18:06;23.65;;;17.05;;
15946;SDS011;8072;52.554;7.966;2023-05-09T10:20:33;23.63;;;17.33;;
15946;SDS011;8072;52.554;7.966;2023-05-09T10:23:00;24.23;;;16.70;;
15946;SDS011;8072;52.554;7.966;2023-05-09T10:25:32;22.17;;;16.38;;
15946;SDS011;8072;52.554;7.966;2023-05-09T10:28:11;21.83;;;16.30;;
15946;SDS011;8072;52.554;7.966;2023-05-09T10:30:59;21.38;;;16.85;;
15946;SDS011;8072;52.554;7.966;2023-05-09T10:34:05;23.95;;;15.98;;
15946;SDS011;8072;52.554;7.966;2023-05-09T10:36:25;20.83;;;15.77;;
15946;SDS011;8072;52.554;7.966;2023-05-09T10:38:53;23.92;;;15.85;;
15946;SDS011;8072;52.554;7.966;2023-05-09T10:41:19;20.42;;;14.93;;
15946;SDS011;8072;52.554;7.966;2023-05-09T10:43:46;18.80;;;14.30;;
15946;SDS011;8072;52.554;7.966;2023-05-09T10:46:12;19.30;;;14.15;;
15946;SDS011;8072;52.554;7.966;2023-05-09T10:48:39;20.42;;;15.48;;
15946;SDS011;8072;52.554;7.966;2023-05-09T10:51:07;19.90;;;14.68;;
15946;SDS011;8072;52.554;7.966;2023-05-09T10:53:40;20.77;;;15.23;;
15946;SDS011;8072;52.554;7.966;2023-05-09T10:56:31;19.35;;;14.80;;
15946;SDS011;8072;52.554;7.966;2023-05-09T10:58:59;19.38;;;14.40;;
15946;SDS011;8072;52.554;7.966;2023-05-09T11:01:30;18.58;;;14.27;;
15946;SDS011;8072;52.554;7.966;2023-05-09T11:04:13;20.63;;;15.70;;
15946;SDS011;8072;52.554;7.966;2023-05-09T11:06:47;19.80;;;14.65;;
15946;SDS011;8072;52.554;7.966;2023-05-09T11:17:03;21.83;;;14.95;;
15946;SDS011;8072;52.554;7.966;2023-05-09T11:19:37;19.40;;;14.63;;
15946;SDS011;8072;52.554;7.966;2023-05-09T11:22:25;20.70;;;14.90;;
15946;SDS011;8072;52.554;7.966;2023-05-09T11:27:37;21.25;;;15.57;;
15946;SDS011;8072;52.554;7.966;2023-05-09T11:30:12;18.25;;;14.57;;
15946;SDS011;8072;52.554;7.966;2023-05-09T11:32:43;19.83;;;15.00;;
15946;SDS011;8072;52.554;7.966;2023-05-09T11:35:21;20.15;;;14.85;;
15946;SDS011;8072;52.554;7.966;2023-05-09T11:37:51;18.95;;;15.07;;
15946;SDS011;8072;52.554;7.966;2023-05-09T11:40:24;19.98;;;15.52;;
15946;SDS011;8072;52.554;7.966;2023-05-09T11:42:51;20.58;;;15.07;;
15946;SDS011;8072;52.554;7.966;2023-05-09T11:45:19;20.83;;;16.15;;
15946;SDS011;8072;52.554;7.966;2023-05-09T11:47:46;24.17;;;18.02;;
15946;SDS011;8072;52.554;7.966;2023-05-09T11:50:13;22.13;;;17.35;;
15946;SDS011;8072;52.554;7.966;2023-05-09T11:52:39;23.30;;;16.92;;
15946;SDS011;8072;52.554;7.966;2023-05-09T11:55:06;22.85;;;16.45;;
15946;SDS011;8072;52.554;7.966;2023-05-09T11:57:46;25.83;;;18.30;;
15946;SDS011;8072;52.554;7.966;2023-05-09T12:00:15;23.70;;;17.30;;
15946;SDS011;8072;52.554;7.966;2023-05-09T12:02:45;21.35;;;16.98;;
15946;SDS011;8072;52.554;7.966;2023-05-09T12:05:12;23.77;;;17.98;;
15946;SDS011;8072;52.554;7.966;2023-05-09T12:07:39;23.73;;;18.08;;
15946;SDS011;8072;52.554;7.966;2023-05-09T12:10:07;22.85;;;17.48;;
15946;SDS011;8072;52.554;7.966;2023-05-09T12:12:44;20.60;;;16.08;;
15946;SDS011;8072;52.554;7.966;2023-05-09T12:15:11;21.75;;;17.42;;
15946;SDS011;8072;52.554;7.966;2023-05-09T12:17:37;20.90;;;16.85;;
15946;SDS011;8072;52.554;7.966;2023-05-09T12:20:04;21.80;;;16.27;;
15946;SDS011;8072;52.554;7.966;2023-05-09T12:22:31;22.63;;;16.77;;
15946;SDS011;8072;52.554;7.966;2023-05-09T12:24:58;22.25;;;16.15;;
15946;SDS011;8072;52.554;7.966;2023-05-09T12:27:30;22.33;;;16.52;;
15946;SDS011;8072;52.554;7.966;2023-05-09T12:29:57;19.77;;;15.57;;
15946;SDS011;8072;52.554;7.966;2023-05-09T12:32:25;23.63;;;16.23;;
15946;SDS011;8072;52.554;7.966;2023-05-09T12:34:56;23.15;;;17.60;;
15946;SDS011;8072;52.554;7.966;2023-05-09T12:37:24;23.17;;;17.13;;
15946;SDS011;8072;52.554;7.966;2023-05-09T12:40:03;22.95;;;17.20;;
15946;SDS011;8072;52.554;7.966;2023-05-09T12:42:29;22.98;;;17.50;;
15946;SDS011;8072;52.554;7.966;2023-05-09T12:45:02;24.35;;;17.60;;
15946;SDS011;8072;52.554;7.966;2023-05-09T12:47:31;25.25;;;18.50;;
15946;SDS011;8072;52.554;7.966;2023-05-09T12:49:58;23.95;;;17.10;;
15946;SDS011;8072;52.554;7.966;2023-05-09T12:52:31;22.15;;;16.52;;
15946;SDS011;8072;52.554;7.966;2023-05-09T12:55:08;20.58;;;14.40;;
15946;SDS011;8072;52.554;7.966;2023-05-09T12:57:36;17.65;;;13.30;;
15946;SDS011;8072;52.554;7.966;2023-05-09T13:00:03;17.20;;;12.65;;
15946;SDS011;8072;52.554;7.966;2023-05-09T13:02:37;16.30;;;12.43;;
15946;SDS011;8072;52.554;7.966;2023-05-09T13:10:15;19.33;;;13.30;;
15946;SDS011;8072;52.554;7.966;2023-05-09T13:12:47;18.52;;;13.48;;
15946;SDS011;8072;52.554;7.966;2023-05-09T13:15:22;17.27;;;12.43;;
15946;SDS011;8072;52.554;7.966;2023-05-09T13:17:50;17.93;;;14.33;;
15946;SDS011;8072;52.554;7.966;2023-05-09T13:20:17;19.70;;;14.47;;
15946;SDS011;8072;52.554;7.966;2023-05-09T13:22:44;23.67;;;16.95;;
15946;SDS011;8072;52.554;7.966;2023-05-09T13:25:10;22.05;;;16.48;;
15946;SDS011;8072;52.554;7.966;2023-05-09T13:27:36;23.93;;;17.97;;
15946;SDS011;8072;52.554;7.966;2023-05-09T13:30:02;27.67;;;18.85;;
15946;SDS011;8072;52.554;7.966;2023-05-09T13:32:31;26.40;;;18.50;;
15946;SDS011;8072;52.554;7.966;2023-05-09T13:34:57;24.10;;;18.10;;
15946;SDS011;8072;52.554;7.966;2023-05-09T13:37:23;24.80;;;17.58;;
15946;SDS011;8072;52.554;7.966;2023-05-09T13:39:49;23.33;;;17.43;;
15946;SDS011;8072;52.554;7.966;2023-05-09T13:42:14;21.20;;;15.53;;
15946;SDS011;8072;52.554;7.966;2023-05-09T13:44:40;16.10;;;12.53;;
15946;SDS011;8072;52.554;7.966;2023-05-09T13:47:06;11.75;;;9.88;;
15946;SDS011;8072;52.554;7.966;2023-05-09T13:49:32;13.83;;;10.43;;
15946;SDS011;8072;52.554;7.966;2023-05-09T13:51:59;13.15;;;9.20;;
15946;SDS011;8072;52.554;7.966;2023-05-09T13:54:24;12.40;;;9.70;;
15946;SDS011;8072;52.554;7.966;2023-05-09T13:56:51;9.18;;;8.07;;
15946;SDS011;8072;52.554;7.966;2023-05-09T13:59:16;11.18;;;8.57;;
15946;SDS011;8072;52.554;7.966;2023-05-09T14:01:42;9.93;;;8.63;;
15946;SDS011;8072;52.554;7.966;2023-05-09T14:04:08;11.47;;;9.17;;
15946;SDS011;8072;52.554;7.966;2023-05-09T14:06:34;10.60;;;8.93;;
15946;SDS011;8072;52.554;7.966;2023-05-09T14:09:00;11.18;;;9.45;;
15946;SDS011;8072;52.554;7.966;2023-05-09T14:11:26;12.60;;;9.77;;
15946;SDS011;8072;52.554;7.966;2023-05-09T14:13:53;13.57;;;10.30;;
15946;SDS011;8072;52.554;7.966;2023-05-09T14:16:19;14.93;;;10.10;;
15946;SDS011;8072;52.554;7.966;2023-05-09T14:18:45;13.77;;;10.95;;
15946;SDS011;8072;52.554;7.966;2023-05-09T14:21:11;13.70;;;11.20;;
15946;SDS011;8072;52.554;7.966;2023-05-09T14:23:40;15.18;;;11.15;;
15946;SDS011;8072;52.554;7.966;2023-05-09T14:26:06;13.43;;;11.57;;
15946;SDS011;8072;52.554;7.966;2023-05-09T14:28:32;15.52;;;12.07;;
15946;SDS011;8072;52.554;7.966;2023-05-09T14:30:58;15.50;;;12.13;;
15946;SDS011;8072;52.554;7.966;2023-05-09T14:33:24;18.25;;;12.52;;
15946;SDS011;8072;52.554;7.966;2023-05-09T14:35:50;17.10;;;13.50;;
15946;SDS011;8072;52.554;7.966;2023-05-09T14:38:16;17.02;;;13.00;;
15946;SDS011;8072;52.554;7.966;2023-05-09T14:40:42;15.40;;;12.77;;
15946;SDS011;8072;52.554;7.966;2023-05-09T14:43:07;18.00;;;12.43;;
15946;SDS011;8072;52.554;7.966;2023-05-09T14:45:33;15.80;;;12.07;;
15946;SDS011;8072;52.554;7.966;2023-05-09T14:47:59;16.48;;;12.15;;
15946;SDS011;8072;52.554;7.966;2023-05-09T14:50:26;15.00;;;12.75;;
15946;SDS011;8072;52.554;7.966;2023-05-09T14:52:52;16.20;;;12.10;;
15946;SDS011;8072;52.554;7.966;2023-05-09T14:55:18;15.98;;;12.43;;
15946;SDS011;8072;52.554;7.966;2023-05-09T14:57:44;15.15;;;12.35;;
15946;SDS011;8072;52.554;7.966;2023-05-09T15:00:10;17.70;;;13.45;;
15946;SDS011;8072;52.554;7.966;2023-05-09T15:02:36;16.73;;;12.98;;
15946;SDS011;8072;52.554;7.966;2023-05-09T15:05:03;15.35;;;12.32;;
15946;SDS011;8072;52.554;7.966;2023-05-09T15:07:29;16.42;;;12.60;;